Terminal Aerodrome Forecast
Issued by NWS Boston, MA

Home | Current Version | Previous Version | Text Only | Print | Product List | Glossary On
Versions: 1 2 3 4 5 6 7 8 9 10 11 12 13 14 15 16 17 18 19 20 21 22 23 24 25 26
000
FTUS41 KBOX 251122
TAFBOS
TAF
KBOS 251122Z 2512/2618 06012KT P6SM -SHRA OVC015
     FM251800 06015KT 5SM -RA BR OVC008
     FM260000 07011KT 1SM -RA BR OVC008
     FM260600 08008KT 2SM -RA BR OVC003
     FM261500 10006KT 1SM -RA BR OVC003=

USA.gov is the U.S. government's official web portal to all federal, state and local government web resources and services.